Time,TemperatureF,DewpointF,PressureIn,WindDirection,WindDirectionDegrees,WindSpeedMPH,WindSpeedGustMPH,Humidity,HourlyPrecipIn,Conditions,Clouds,dailyrainin,SoftwareType,DateUTC
2013-03-18 00:04:00,60.7,57.0,30.05,SSW,196,0.0,0.0,87,0.00,,,0.00,weatherlink.com 1.10,2013-03-18 04:04:00,
2013-03-18 00:19:00,60.4,57.0,30.05,SSW,196,0.0,0.0,88,0.00,,,0.00,weatherlink.com 1.10,2013-03-18 04:19:00,
2013-03-18 00:34:00,60.7,58.0,30.04,SSW,196,0.0,1.0,90,0.00,,,0.00,weatherlink.com 1.10,2013-03-18 04:34:00,
2013-03-18 00:49:00,61.6,59.0,30.03,SSW,196,0.0,2.0,91,0.00,,,0.00,weatherlink.com 1.10,2013-03-18 04:49:00,
2013-03-18 01:04:00,62.3,59.0,30.03,SSW,196,0.0,2.0,90,0.00,,,0.00,weatherlink.com 1.10,2013-03-18 05:04:00,
2013-03-18 01:19:00,62.7,60.0,30.04,SSW,196,1.0,2.0,90,0.00,,,0.00,weatherlink.com 1.10,2013-03-18 05:19:00,
2013-03-18 01:34:00,62.8,60.0,30.04,SSW,196,0.0,2.0,89,0.00,,,0.00,weatherlink.com 1.10,2013-03-18 05:34:00,
2013-03-18 01:50:00,62.9,60.0,30.04,South,180,0.0,2.0,89,0.00,,,0.00,weatherlink.com 1.10,2013-03-18 05:50:00,
2013-03-18 02:05:00,62.7,59.0,30.01,South,180,0.0,1.0,88,0.00,,,0.00,weatherlink.com 1.10,2013-03-18 06:05:00,
2013-03-18 02:20:00,62.7,60.0,30.01,SSW,201,0.0,3.0,89,0.00,,,0.00,weatherlink.com 1.10,2013-03-18 06:20:00,
2013-03-18 02:35:00,62.8,60.0,30.00,SSW,201,0.0,1.0,90,0.00,,,0.00,weatherlink.com 1.10,2013-03-18 06:35:00,
2013-03-18 02:50:00,62.9,60.0,29.99,SSE,154,1.0,3.0,91,0.00,,,0.00,weatherlink.com 1.10,2013-03-18 06:50:00,
2013-03-18 03:05:00,63.2,61.0,30.00,SSE,160,0.0,3.0,91,0.01,,,0.01,weatherlink.com 1.10,2013-03-18 07:05:00,
2013-03-18 03:20:00,63.2,60.0,30.00,SSE,166,1.0,3.0,90,0.01,,,0.01,weatherlink.com 1.10,2013-03-18 07:20:00,
2013-03-18 03:35:00,63.2,60.0,30.01,SSE,165,0.0,0.0,90,0.01,,,0.01,weatherlink.com 1.10,2013-03-18 07:35:00,
2013-03-18 03:50:00,63.1,60.0,30.00,SSE,165,0.0,0.0,90,0.00,,,0.01,weatherlink.com 1.10,2013-03-18 07:50:00,
2013-03-18 04:05:00,62.9,60.0,30.00,SSE,165,1.0,1.0,90,0.00,,,0.01,weatherlink.com 1.10,2013-03-18 08:05:00,
2013-03-18 04:20:00,62.8,60.0,30.00,SSE,165,1.0,1.0,91,0.00,,,0.01,weatherlink.com 1.10,2013-03-18 08:20:00,
2013-03-18 04:35:00,62.7,60.0,30.00,SSE,165,0.0,1.0,91,0.00,,,0.01,weatherlink.com 1.10,2013-03-18 08:35:00,
2013-03-18 04:50:00,62.7,60.0,30.00,SSE,165,0.0,0.0,91,0.00,,,0.01,weatherlink.com 1.10,2013-03-18 08:50:00,
2013-03-18 05:05:00,62.5,60.0,30.00,SSE,165,0.0,0.0,90,0.00,,,0.01,weatherlink.com 1.10,2013-03-18 09:05:00,
2013-03-18 05:20:00,62.3,60.0,30.01,SSE,168,0.0,2.0,91,0.00,,,0.01,weatherlink.com 1.10,2013-03-18 09:20:00,
2013-03-18 05:35:00,62.2,60.0,30.01,SSE,168,0.0,1.0,91,0.00,,,0.01,weatherlink.com 1.10,2013-03-18 09:35:00,
2013-03-18 05:50:00,61.9,59.0,30.00,SSE,167,0.0,2.0,91,0.00,,,0.01,weatherlink.com 1.10,2013-03-18 09:50:00,
2013-03-18 06:05:00,61.7,59.0,30.00,SSE,167,0.0,2.0,91,0.00,,,0.01,weatherlink.com 1.10,2013-03-18 10:05:00,
2013-03-18 06:20:00,61.7,59.0,30.01,SSE,166,0.0,0.0,91,0.00,,,0.01,weatherlink.com 1.10,2013-03-18 10:20:00,
2013-03-18 06:35:00,61.7,59.0,30.01,SSE,167,0.0,2.0,91,0.00,,,0.01,weatherlink.com 1.10,2013-03-18 10:35:00,
2013-03-18 06:50:00,61.6,59.0,30.02,SSE,167,0.0,0.0,91,0.00,,,0.01,weatherlink.com 1.10,2013-03-18 10:50:00,
2013-03-18 07:05:00,61.4,59.0,30.02,SSE,167,0.0,0.0,91,0.00,,,0.01,weatherlink.com 1.10,2013-03-18 11:05:00,
2013-03-18 07:20:00,61.1,59.0,30.02,SSE,167,0.0,0.0,91,0.00,,,0.01,weatherlink.com 1.10,2013-03-18 11:20:00,
2013-03-18 07:35:00,60.8,58.0,30.03,SSE,167,0.0,0.0,91,0.00,,,0.01,weatherlink.com 1.10,2013-03-18 11:35:00,
2013-03-18 07:50:00,60.5,58.0,30.03,SSE,167,0.0,0.0,92,0.00,,,0.01,weatherlink.com 1.10,2013-03-18 11:50:00,
2013-03-18 08:05:00,60.3,58.0,30.04,SSE,167,0.0,0.0,92,0.00,,,0.01,weatherlink.com 1.10,2013-03-18 12:05:00,
2013-03-18 08:20:00,60.9,59.0,30.03,SSE,167,0.0,0.0,94,0.00,,,0.01,weatherlink.com 1.10,2013-03-18 12:20:00,
2013-03-18 08:35:00,63.3,61.0,30.03,SSE,167,0.0,1.0,93,0.00,,,0.01,weatherlink.com 1.10,2013-03-18 12:35:00,
2013-03-18 08:50:00,65.3,62.0,30.03,SE,126,1.0,4.0,89,0.00,,,0.01,weatherlink.com 1.10,2013-03-18 12:50:00,
2013-03-18 09:05:00,66.0,62.0,30.03,SE,136,2.0,4.0,88,0.00,,,0.01,weatherlink.com 1.10,2013-03-18 13:05:00,
2013-03-18 09:20:00,66.7,63.0,30.03,SE,128,1.0,5.0,87,0.00,,,0.01,weatherlink.com 1.10,2013-03-18 13:20:00,
2013-03-18 09:35:00,67.9,63.0,30.02,SE,143,1.0,5.0,85,0.00,,,0.01,weatherlink.com 1.10,2013-03-18 13:35:00,
2013-03-18 09:50:00,69.6,64.0,30.03,SE,140,3.0,7.0,83,0.00,,,0.01,weatherlink.com 1.10,2013-03-18 13:50:00,
2013-03-18 10:05:00,70.4,65.0,30.02,South,186,2.0,7.0,82,0.00,,,0.01,weatherlink.com 1.10,2013-03-18 14:05:00,
2013-03-18 10:20:00,72.1,66.0,30.02,ESE,118,4.0,7.0,80,0.00,,,0.01,weatherlink.com 1.10,2013-03-18 14:20:00,
2013-03-18 10:35:00,73.7,65.0,30.02,SSE,159,4.0,10.0,75,0.00,,,0.01,weatherlink.com 1.10,2013-03-18 14:35:00,
2013-03-18 10:50:00,74.7,66.0,30.02,South,173,2.0,10.0,74,0.00,,,0.01,weatherlink.com 1.10,2013-03-18 14:50:00,
2013-03-18 11:05:00,75.7,66.0,30.02,SW,232,5.0,8.0,71,0.00,,,0.01,weatherlink.com 1.10,2013-03-18 15:05:00,
2013-03-18 11:20:00,76.0,65.0,30.03,SSE,157,1.0,7.0,69,0.00,,,0.01,weatherlink.com 1.10,2013-03-18 15:20:00,
2013-03-18 11:35:00,76.6,66.0,30.03,SSW,198,2.0,7.0,69,0.00,,,0.01,weatherlink.com 1.10,2013-03-18 15:35:00,
2013-03-18 11:50:00,76.9,66.0,30.02,SSE,154,3.0,7.0,70,0.00,,,0.01,weatherlink.com 1.10,2013-03-18 15:50:00,
2013-03-18 12:06:00,77.8,66.0,30.02,SSW,205,6.0,7.0,67,0.00,,,0.01,weatherlink.com 1.10,2013-03-18 16:06:00,
2013-03-18 12:21:00,76.8,65.0,30.01,SE,126,3.0,6.0,68,0.00,,,0.01,weatherlink.com 1.10,2013-03-18 16:21:00,
2013-03-18 12:36:00,76.8,66.0,30.01,SSW,207,0.0,7.0,69,0.00,,,0.01,weatherlink.com 1.10,2013-03-18 16:36:00,
2013-03-18 12:51:00,77.3,66.0,30.01,SSW,200,2.0,6.0,68,0.00,,,0.01,weatherlink.com 1.10,2013-03-18 16:51:00,
2013-03-18 13:06:00,77.0,66.0,30.01,South,185,2.0,8.0,68,0.00,,,0.01,weatherlink.com 1.10,2013-03-18 17:06:00,
2013-03-18 13:21:00,77.1,66.0,30.00,SW,219,1.0,6.0,68,0.00,,,0.01,weatherlink.com 1.10,2013-03-18 17:21:00,
2013-03-18 13:36:00,77.9,67.0,30.00,WSW,240,0.0,5.0,69,0.00,,,0.01,weatherlink.com 1.10,2013-03-18 17:36:00,
2013-03-18 13:51:00,78.0,66.0,29.99,SSW,210,2.0,5.0,67,0.00,,,0.01,weatherlink.com 1.10,2013-03-18 17:51:00,
2013-03-18 14:06:00,78.0,66.0,29.99,WSW,239,3.0,9.0,66,0.00,,,0.01,weatherlink.com 1.10,2013-03-18 18:06:00,
2013-03-18 14:21:00,78.2,66.0,29.98,SW,230,2.0,6.0,66,0.00,,,0.01,weatherlink.com 1.10,2013-03-18 18:21:00,
2013-03-18 14:36:00,78.3,66.0,29.98,SSW,208,1.0,5.0,66,0.00,,,0.01,weatherlink.com 1.10,2013-03-18 18:36:00,
2013-03-18 14:51:00,78.2,65.0,29.97,SW,222,2.0,4.0,65,0.00,,,0.01,weatherlink.com 1.10,2013-03-18 18:51:00,
2013-03-18 15:36:00,77.4,66.0,29.94,SSW,211,1.0,5.0,67,0.00,,,0.01,weatherlink.com 1.10,2013-03-18 19:36:00,
2013-03-18 15:51:00,77.4,66.0,29.93,SW,225,2.0,5.0,67,0.00,,,0.01,weatherlink.com 1.10,2013-03-18 19:51:00,
2013-03-18 16:06:00,76.9,66.0,29.92,SW,222,1.0,5.0,69,0.00,,,0.01,weatherlink.com 1.10,2013-03-18 20:06:00,
2013-03-18 16:21:00,76.6,67.0,29.92,SSW,198,4.0,7.0,72,0.00,,,0.01,weatherlink.com 1.10,2013-03-18 20:21:00,
2013-03-18 17:06:00,72.6,65.0,29.94,WSW,250,2.0,9.0,77,0.00,,,0.01,weatherlink.com 1.10,2013-03-18 21:06:00,
2013-03-18 17:21:00,70.9,66.0,29.92,WSW,250,2.0,3.0,83,0.01,,,0.02,weatherlink.com 1.10,2013-03-18 21:21:00,
2013-03-18 17:36:00,70.5,66.0,29.92,SSW,208,1.0,4.0,85,0.01,,,0.02,weatherlink.com 1.10,2013-03-18 21:36:00,
2013-03-18 18:06:00,70.7,67.0,29.94,West,263,1.0,6.0,88,0.01,,,0.02,weatherlink.com 1.10,2013-03-18 22:06:00,
2013-03-18 18:21:00,70.7,67.0,29.93,SSW,208,0.0,6.0,88,0.00,,,0.02,weatherlink.com 1.10,2013-03-18 22:21:00,
2013-03-18 18:36:00,70.9,67.0,29.92,South,171,2.0,6.0,87,0.00,,,0.02,weatherlink.com 1.10,2013-03-18 22:36:00,
2013-03-18 18:51:00,70.8,67.0,29.91,South,175,0.0,6.0,88,0.00,,,0.02,weatherlink.com 1.10,2013-03-18 22:51:00,
2013-03-18 19:06:00,70.4,67.0,29.91,SE,145,1.0,5.0,88,0.00,,,0.02,weatherlink.com 1.10,2013-03-18 23:06:00,
2013-03-18 19:21:00,70.0,67.0,29.90,SE,140,4.0,5.0,89,0.00,,,0.02,weatherlink.com 1.10,2013-03-18 23:21:00,
2013-03-18 19:36:00,69.7,67.0,29.93,WSW,247,1.0,6.0,90,0.00,,,0.02,weatherlink.com 1.10,2013-03-18 23:36:00,
2013-03-18 19:51:00,69.6,67.0,29.94,SSW,197,0.0,3.0,90,0.00,,,0.02,weatherlink.com 1.10,2013-03-18 23:51:00,
2013-03-18 20:06:00,69.5,67.0,29.94,South,182,0.0,2.0,91,0.00,,,0.02,weatherlink.com 1.10,2013-03-19 00:06:00,
2013-03-18 20:21:00,69.4,67.0,29.95,SW,220,0.0,2.0,91,0.00,,,0.02,weatherlink.com 1.10,2013-03-19 00:21:00,
2013-03-18 20:36:00,69.3,67.0,29.96,West,281,0.0,2.0,91,0.00,,,0.02,weatherlink.com 1.10,2013-03-19 00:36:00,
2013-03-18 20:51:00,69.2,67.0,29.96,West,281,0.0,0.0,92,0.00,,,0.02,weatherlink.com 1.10,2013-03-19 00:51:00,
2013-03-18 21:06:00,69.0,67.0,29.97,SSW,213,1.0,6.0,92,0.00,,,0.02,weatherlink.com 1.10,2013-03-19 01:06:00,
2013-03-18 21:21:00,68.8,66.0,29.96,SSW,208,0.0,4.0,92,0.00,,,0.02,weatherlink.com 1.10,2013-03-19 01:21:00,
2013-03-18 21:36:00,68.4,66.0,29.95,South,191,4.0,5.0,92,0.00,,,0.02,weatherlink.com 1.10,2013-03-19 01:36:00,
2013-03-18 21:51:00,68.1,66.0,29.95,South,184,1.0,4.0,93,0.00,,,0.02,weatherlink.com 1.10,2013-03-19 01:51:00,
2013-03-18 22:06:00,67.9,66.0,29.94,South,188,0.0,6.0,93,0.00,,,0.02,weatherlink.com 1.10,2013-03-19 02:06:00,
2013-03-18 22:21:00,67.7,66.0,29.93,SSE,165,1.0,5.0,93,0.00,,,0.02,weatherlink.com 1.10,2013-03-19 02:21:00,
2013-03-18 22:36:00,67.5,66.0,29.87,SSE,148,2.0,9.0,94,0.00,,,0.02,weatherlink.com 1.10,2013-03-19 02:36:00,
2013-03-18 22:51:00,67.4,66.0,29.89,SSW,207,4.0,14.0,94,0.00,,,0.02,weatherlink.com 1.10,2013-03-19 02:51:00,
2013-03-18 23:06:00,67.5,66.0,29.93,WSW,254,0.0,7.0,93,0.00,,,0.02,weatherlink.com 1.10,2013-03-19 03:06:00,
2013-03-18 23:21:00,67.4,65.0,29.93,WSW,238,2.0,6.0,93,0.00,,,0.02,weatherlink.com 1.10,2013-03-19 03:21:00,
2013-03-18 23:36:00,67.4,65.0,29.93,West,263,1.0,3.0,93,0.00,,,0.02,weatherlink.com 1.10,2013-03-19 03:36:00,
2013-03-18 23:51:00,67.4,65.0,29.93,West,259,0.0,2.0,93,0.00,,,0.02,weatherlink.com 1.10,2013-03-19 03:51:00,